sensor_id;sensor_type;location;lat;lon;timestamp;temperature;humidity
47961;DHT22;33721;48.852;9.936;2023-08-06T00:00:07;15.00;99.90
47961;DHT22;33721;48.852;9.936;2023-08-06T00:02:33;15.00;99.90
47961;DHT22;33721;48.852;9.936;2023-08-06T00:04:59;15.00;99.90
47961;DHT22;33721;48.852;9.936;2023-08-06T00:07:25;15.00;99.90
47961;DHT22;33721;48.852;9.936;2023-08-06T00:09:50;15.10;99.90
47961;DHT22;33721;48.852;9.936;2023-08-06T00:12:16;15.00;99.90
47961;DHT22;33721;48.852;9.936;2023-08-06T00:14:41;15.00;99.90
47961;DHT22;33721;48.852;9.936;2023-08-06T00:17:08;15.00;99.90
47961;DHT22;33721;48.852;9.936;2023-08-06T00:19:33;15.00;99.90
47961;DHT22;33721;48.852;9.936;2023-08-06T00:21:59;15.00;99.90
47961;DHT22;33721;48.852;9.936;2023-08-06T00:24:24;15.10;99.90
47961;DHT22;33721;48.852;9.936;2023-08-06T00:26:50;15.00;99.90
47961;DHT22;33721;48.852;9.936;2023-08-06T00:29:16;15.00;99.90
47961;DHT22;33721;48.852;9.936;2023-08-06T00:31:41;15.00;99.90
47961;DHT22;33721;48.852;9.936;2023-08-06T00:34:07;15.00;99.90
47961;DHT22;33721;48.852;9.936;2023-08-06T00:36:32;15.00;99.90
47961;DHT22;33721;48.852;9.936;2023-08-06T00:38:58;14.90;99.90
47961;DHT22;33721;48.852;9.936;2023-08-06T00:41:24;15.00;99.90
47961;DHT22;33721;48.852;9.936;2023-08-06T00:43:49;15.00;99.90
47961;DHT22;33721;48.852;9.936;2023-08-06T00:46:15;14.90;99.90
47961;DHT22;33721;48.852;9.936;2023-08-06T00:48:42;14.90;99.90
47961;DHT22;33721;48.852;9.936;2023-08-06T00:51:12;14.90;99.90
47961;DHT22;33721;48.852;9.936;2023-08-06T00:53:38;15.00;99.90
47961;DHT22;33721;48.852;9.936;2023-08-06T00:56:05;15.00;99.90
47961;DHT22;33721;48.852;9.936;2023-08-06T00:58:32;14.90;99.90
47961;DHT22;33721;48.852;9.936;2023-08-06T01:00:57;14.90;99.90
47961;DHT22;33721;48.852;9.936;2023-08-06T01:03:23;14.80;99.90
47961;DHT22;33721;48.852;9.936;2023-08-06T01:05:49;14.90;99.90
47961;DHT22;33721;48.852;9.936;2023-08-06T01:08:40;14.90;99.90
47961;DHT22;33721;48.852;9.936;2023-08-06T01:14:08;14.80;99.90
47961;DHT22;33721;48.852;9.936;2023-08-06T01:16:35;14.80;99.90
47961;DHT22;33721;48.852;9.936;2023-08-06T01:19:02;14.80;99.90
47961;DHT22;33721;48.852;9.936;2023-08-06T01:21:27;14.80;99.90
47961;DHT22;33721;48.852;9.936;2023-08-06T01:23:53;14.80;99.90
47961;DHT22;33721;48.852;9.936;2023-08-06T01:30:09;14.80;99.90
47961;DHT22;33721;48.852;9.936;2023-08-06T01:32:34;14.80;99.90
47961;DHT22;33721;48.852;9.936;2023-08-06T01:35:02;14.80;99.90
47961;DHT22;33721;48.852;9.936;2023-08-06T01:37:29;14.70;99.90
47961;DHT22;33721;48.852;9.936;2023-08-06T01:39:55;14.70;99.90
47961;DHT22;33721;48.852;9.936;2023-08-06T01:42:20;14.80;99.90
47961;DHT22;33721;48.852;9.936;2023-08-06T01:44:46;14.80;99.90
47961;DHT22;33721;48.852;9.936;2023-08-06T01:47:12;14.80;99.90
47961;DHT22;33721;48.852;9.936;2023-08-06T01:49:37;14.80;99.90
47961;DHT22;33721;48.852;9.936;2023-08-06T01:52:03;14.80;99.90
47961;DHT22;33721;48.852;9.936;2023-08-06T01:54:29;14.80;99.90
47961;DHT22;33721;48.852;9.936;2023-08-06T01:56:55;14.70;99.90
47961;DHT22;33721;48.852;9.936;2023-08-06T01:59:20;14.80;99.90
47961;DHT22;33721;48.852;9.936;2023-08-06T02:01:46;14.80;99.90
47961;DHT22;33721;48.852;9.936;2023-08-06T02:04:12;14.80;99.90
47961;DHT22;33721;48.852;9.936;2023-08-06T02:06:37;14.80;99.90
47961;DHT22;33721;48.852;9.936;2023-08-06T02:09:03;14.90;99.90
47961;DHT22;33721;48.852;9.936;2023-08-06T02:11:28;14.80;99.90
47961;DHT22;33721;48.852;9.936;2023-08-06T02:13:54;14.80;99.90
47961;DHT22;33721;48.852;9.936;2023-08-06T02:16:20;14.80;99.90
47961;DHT22;33721;48.852;9.936;2023-08-06T02:18:45;14.70;99.90
47961;DHT22;33721;48.852;9.936;2023-08-06T02:21:11;14.70;99.90
47961;DHT22;33721;48.852;9.936;2023-08-06T02:23:36;14.70;99.90
47961;DHT22;33721;48.852;9.936;2023-08-06T02:26:03;14.70;99.90
47961;DHT22;33721;48.852;9.936;2023-08-06T02:28:30;14.70;99.90
47961;DHT22;33721;48.852;9.936;2023-08-06T02:30:56;14.70;99.90
47961;DHT22;33721;48.852;9.936;2023-08-06T02:33:21;14.70;99.90
47961;DHT22;33721;48.852;9.936;2023-08-06T02:35:47;14.70;99.90
47961;DHT22;33721;48.852;9.936;2023-08-06T02:38:13;14.70;99.90
47961;DHT22;33721;48.852;9.936;2023-08-06T02:40:45;14.80;99.90
47961;DHT22;33721;48.852;9.936;2023-08-06T02:43:12;14.70;99.90
47961;DHT22;33721;48.852;9.936;2023-08-06T02:45:37;14.70;99.90
47961;DHT22;33721;48.852;9.936;2023-08-06T02:48:03;14.80;99.90
47961;DHT22;33721;48.852;9.936;2023-08-06T02:50:29;14.70;99.90
47961;DHT22;33721;48.852;9.936;2023-08-06T02:52:54;14.70;99.90
47961;DHT22;33721;48.852;9.936;2023-08-06T02:55:20;14.60;99.90
47961;DHT22;33721;48.852;9.936;2023-08-06T02:57:47;14.70;99.90
47961;DHT22;33721;48.852;9.936;2023-08-06T03:00:12;14.70;99.90
47961;DHT22;33721;48.852;9.936;2023-08-06T03:02:38;14.70;99.90
47961;DHT22;33721;48.852;9.936;2023-08-06T03:05:04;14.70;99.90
47961;DHT22;33721;48.852;9.936;2023-08-06T03:07:31;14.70;99.90
47961;DHT22;33721;48.852;9.936;2023-08-06T03:09:58;14.70;99.90
47961;DHT22;33721;48.852;9.936;2023-08-06T03:12:26;14.60;99.90
47961;DHT22;33721;48.852;9.936;2023-08-06T03:14:51;14.60;99.90
47961;DHT22;33721;48.852;9.936;2023-08-06T03:17:17;14.60;99.90
47961;DHT22;33721;48.852;9.936;2023-08-06T03:19:43;14.60;99.90
47961;DHT22;33721;48.852;9.936;2023-08-06T03:22:08;14.60;99.90
47961;DHT22;33721;48.852;9.936;2023-08-06T03:24:34;14.60;99.90
47961;DHT22;33721;48.852;9.936;2023-08-06T03:26:59;14.60;99.90
47961;DHT22;33721;48.852;9.936;2023-08-06T03:29:25;14.60;99.90
47961;DHT22;33721;48.852;9.936;2023-08-06T03:31:52;14.60;99.90
47961;DHT22;33721;48.852;9.936;2023-08-06T03:34:17;14.60;99.90
47961;DHT22;33721;48.852;9.936;2023-08-06T03:36:43;14.50;99.90
47961;DHT22;33721;48.852;9.936;2023-08-06T03:39:08;14.60;99.90
47961;DHT22;33721;48.852;9.936;2023-08-06T03:41:34;14.60;99.90
47961;DHT22;33721;48.852;9.936;2023-08-06T03:44:00;14.50;99.90
47961;DHT22;33721;48.852;9.936;2023-08-06T03:46:28;14.40;99.90
47961;DHT22;33721;48.852;9.936;2023-08-06T03:48:53;14.50;99.90
47961;DHT22;33721;48.852;9.936;2023-08-06T03:51:19;14.40;99.90
47961;DHT22;33721;48.852;9.936;2023-08-06T03:53:45;14.50;99.90
47961;DHT22;33721;48.852;9.936;2023-08-06T03:56:10;14.50;99.90
47961;DHT22;33721;48.852;9.936;2023-08-06T03:58:36;14.50;99.90
47961;DHT22;33721;48.852;9.936;2023-08-06T04:01:02;14.40;99.90
47961;DHT22;33721;48.852;9.936;2023-08-06T04:03:28;14.40;99.90
47961;DHT22;33721;48.852;9.936;2023-08-06T04:05:54;14.40;99.90
47961;DHT22;33721;48.852;9.936;2023-08-06T04:08:20;14.30;99.90
47961;DHT22;33721;48.852;9.936;2023-08-06T04:10:49;14.20;99.90
47961;DHT22;33721;48.852;9.936;2023-08-06T04:13:15;14.10;99.90
47961;DHT22;33721;48.852;9.936;2023-08-06T04:15:40;14.10;99.90
47961;DHT22;33721;48.852;9.936;2023-08-06T04:18:06;14.10;99.90
47961;DHT22;33721;48.852;9.936;2023-08-06T04:20:31;14.10;99.90
47961;DHT22;33721;48.852;9.936;2023-08-06T04:22:57;14.10;99.90
47961;DHT22;33721;48.852;9.936;2023-08-06T04:25:23;14.00;99.90
47961;DHT22;33721;48.852;9.936;2023-08-06T04:27:49;14.00;99.90
47961;DHT22;33721;48.852;9.936;2023-08-06T04:30:14;14.00;99.90
47961;DHT22;33721;48.852;9.936;2023-08-06T04:32:40;14.00;99.90
47961;DHT22;33721;48.852;9.936;2023-08-06T04:35:06;13.90;99.90
47961;DHT22;33721;48.852;9.936;2023-08-06T04:37:32;13.90;99.90
47961;DHT22;33721;48.852;9.936;2023-08-06T04:39:58;14.00;99.90
47961;DHT22;33721;48.852;9.936;2023-08-06T04:42:23;14.00;99.90
47961;DHT22;33721;48.852;9.936;2023-08-06T04:44:49;14.00;99.90
47961;DHT22;33721;48.852;9.936;2023-08-06T04:47:15;14.00;99.90
47961;DHT22;33721;48.852;9.936;2023-08-06T04:49:41;13.90;99.90
47961;DHT22;33721;48.852;9.936;2023-08-06T04:52:07;13.90;99.90
47961;DHT22;33721;48.852;9.936;2023-08-06T04:54:33;13.90;99.90
47961;DHT22;33721;48.852;9.936;2023-08-06T04:56:59;14.00;99.90
47961;DHT22;33721;48.852;9.936;2023-08-06T04:59:24;14.00;99.90
47961;DHT22;33721;48.852;9.936;2023-08-06T05:01:50;14.00;99.90
47961;DHT22;33721;48.852;9.936;2023-08-06T05:04:16;14.10;99.90
47961;DHT22;33721;48.852;9.936;2023-08-06T05:06:41;14.10;99.90
47961;DHT22;33721;48.852;9.936;2023-08-06T05:09:07;14.10;99.90
47961;DHT22;33721;48.852;9.936;2023-08-06T05:11:33;14.10;99.90
47961;DHT22;33721;48.852;9.936;2023-08-06T05:13:58;14.10;99.90
47961;DHT22;33721;48.852;9.936;2023-08-06T05:16:24;14.10;99.90
47961;DHT22;33721;48.852;9.936;2023-08-06T05:18:49;14.00;99.90
47961;DHT22;33721;48.852;9.936;2023-08-06T05:21:15;13.90;99.90
47961;DHT22;33721;48.852;9.936;2023-08-06T05:23:42;13.90;99.90
47961;DHT22;33721;48.852;9.936;2023-08-06T05:26:08;13.80;99.90
47961;DHT22;33721;48.852;9.936;2023-08-06T05:28:34;13.80;99.90
47961;DHT22;33721;48.852;9.936;2023-08-06T05:31:03;13.80;99.90
47961;DHT22;33721;48.852;9.936;2023-08-06T05:33:30;13.80;99.90
47961;DHT22;33721;48.852;9.936;2023-08-06T05:35:55;13.80;99.90
47961;DHT22;33721;48.852;9.936;2023-08-06T05:38:21;13.80;99.90
47961;DHT22;33721;48.852;9.936;2023-08-06T05:40:46;13.80;99.90
47961;DHT22;33721;48.852;9.936;2023-08-06T05:43:13;13.70;99.90
47961;DHT22;33721;48.852;9.936;2023-08-06T05:45:38;13.70;99.90
47961;DHT22;33721;48.852;9.936;2023-08-06T05:48:04;13.70;99.90
47961;DHT22;33721;48.852;9.936;2023-08-06T05:50:30;13.70;99.90
47961;DHT22;33721;48.852;9.936;2023-08-06T05:52:55;13.70;99.90
47961;DHT22;33721;48.852;9.936;2023-08-06T05:55:21;13.70;99.90
47961;DHT22;33721;48.852;9.936;2023-08-06T05:57:47;13.70;99.90
47961;DHT22;33721;48.852;9.936;2023-08-06T06:00:13;13.70;99.90
47961;DHT22;33721;48.852;9.936;2023-08-06T06:02:38;13.60;99.90
47961;DHT22;33721;48.852;9.936;2023-08-06T06:05:04;13.60;99.90
47961;DHT22;33721;48.852;9.936;2023-08-06T06:07:30;13.60;99.90
47961;DHT22;33721;48.852;9.936;2023-08-06T06:09:55;13.60;99.90
47961;DHT22;33721;48.852;9.936;2023-08-06T06:12:21;13.60;99.90
47961;DHT22;33721;48.852;9.936;2023-08-06T06:14:47;13.60;99.90
47961;DHT22;33721;48.852;9.936;2023-08-06T06:17:13;13.60;99.90
47961;DHT22;33721;48.852;9.936;2023-08-06T06:19:39;13.60;99.90
47961;DHT22;33721;48.852;9.936;2023-08-06T06:22:05;13.70;99.90
47961;DHT22;33721;48.852;9.936;2023-08-06T06:24:31;13.70;99.90
47961;DHT22;33721;48.852;9.936;2023-08-06T06:26:56;13.70;99.90
47961;DHT22;33721;48.852;9.936;2023-08-06T06:29:22;13.80;99.90
47961;DHT22;33721;48.852;9.936;2023-08-06T06:31:47;13.80;99.90
47961;DHT22;33721;48.852;9.936;2023-08-06T06:34:13;13.80;99.90
47961;DHT22;33721;48.852;9.936;2023-08-06T06:36:39;13.90;99.90
47961;DHT22;33721;48.852;9.936;2023-08-06T06:39:05;13.90;99.90
47961;DHT22;33721;48.852;9.936;2023-08-06T06:41:30;13.90;99.90
47961;DHT22;33721;48.852;9.936;2023-08-06T06:43:58;13.80;99.90
47961;DHT22;33721;48.852;9.936;2023-08-06T06:46:24;13.80;99.90
47961;DHT22;33721;48.852;9.936;2023-08-06T06:48:49;13.80;99.90
47961;DHT22;33721;48.852;9.936;2023-08-06T06:51:15;13.90;99.90
47961;DHT22;33721;48.852;9.936;2023-08-06T06:53:40;13.80;99.90
47961;DHT22;33721;48.852;9.936;2023-08-06T06:56:06;13.90;99.90
47961;DHT22;33721;48.852;9.936;2023-08-06T06:58:32;13.90;99.90
47961;DHT22;33721;48.852;9.936;2023-08-06T07:00:58;13.90;99.90
47961;DHT22;33721;48.852;9.936;2023-08-06T07:03:23;13.80;99.90
47961;DHT22;33721;48.852;9.936;2023-08-06T07:05:49;13.90;99.90
47961;DHT22;33721;48.852;9.936;2023-08-06T07:08:15;13.90;99.90
47961;DHT22;33721;48.852;9.936;2023-08-06T07:10:42;13.90;99.90
47961;DHT22;33721;48.852;9.936;2023-08-06T07:13:08;13.90;99.90
47961;DHT22;33721;48.852;9.936;2023-08-06T07:15:37;14.00;99.90
47961;DHT22;33721;48.852;9.936;2023-08-06T07:18:02;14.00;99.90
47961;DHT22;33721;48.852;9.936;2023-08-06T07:20:28;14.10;99.90
47961;DHT22;33721;48.852;9.936;2023-08-06T07:22:58;14.00;99.90
47961;DHT22;33721;48.852;9.936;2023-08-06T07:25:24;14.00;99.90
47961;DHT22;33721;48.852;9.936;2023-08-06T07:27:50;13.90;99.90
47961;DHT22;33721;48.852;9.936;2023-08-06T07:30:15;13.80;99.90
47961;DHT22;33721;48.852;9.936;2023-08-06T07:32:41;13.80;99.90
47961;DHT22;33721;48.852;9.936;2023-08-06T07:35:07;13.80;99.90
47961;DHT22;33721;48.852;9.936;2023-08-06T07:37:34;13.80;99.90
47961;DHT22;33721;48.852;9.936;2023-08-06T07:40:00;13.70;99.90
47961;DHT22;33721;48.852;9.936;2023-08-06T07:42:26;13.70;99.90
47961;DHT22;33721;48.852;9.936;2023-08-06T07:44:53;13.70;99.90
47961;DHT22;33721;48.852;9.936;2023-08-06T07:47:19;13.80;99.90
47961;DHT22;33721;48.852;9.936;2023-08-06T07:49:45;13.90;99.90
47961;DHT22;33721;48.852;9.936;2023-08-06T07:52:11;13.90;99.90
47961;DHT22;33721;48.852;9.936;2023-08-06T07:54:36;14.00;99.90
47961;DHT22;33721;48.852;9.936;2023-08-06T07:57:02;14.00;99.90
47961;DHT22;33721;48.852;9.936;2023-08-06T07:59:28;14.00;99.90
47961;DHT22;33721;48.852;9.936;2023-08-06T08:01:53;14.20;99.90
47961;DHT22;33721;48.852;9.936;2023-08-06T08:04:19;14.20;99.90
47961;DHT22;33721;48.852;9.936;2023-08-06T08:06:46;14.10;99.90
47961;DHT22;33721;48.852;9.936;2023-08-06T08:09:12;14.00;99.90
47961;DHT22;33721;48.852;9.936;2023-08-06T08:11:39;13.90;99.90
47961;DHT22;33721;48.852;9.936;2023-08-06T08:14:05;13.90;99.90
47961;DHT22;33721;48.852;9.936;2023-08-06T08:16:30;13.90;99.90
47961;DHT22;33721;48.852;9.936;2023-08-06T08:18:56;13.90;99.90
47961;DHT22;33721;48.852;9.936;2023-08-06T08:21:22;13.80;99.90
47961;DHT22;33721;48.852;9.936;2023-08-06T08:23:49;13.60;99.90
47961;DHT22;33721;48.852;9.936;2023-08-06T08:26:15;13.50;99.90
47961;DHT22;33721;48.852;9.936;2023-08-06T08:28:41;13.50;99.90
47961;DHT22;33721;48.852;9.936;2023-08-06T08:31:10;13.40;99.90
47961;DHT22;33721;48.852;9.936;2023-08-06T08:33:39;13.40;99.90
47961;DHT22;33721;48.852;9.936;2023-08-06T08:36:05;13.50;99.90
47961;DHT22;33721;48.852;9.936;2023-08-06T08:38:30;13.40;99.90
47961;DHT22;33721;48.852;9.936;2023-08-06T08:40:56;13.40;99.90
47961;DHT22;33721;48.852;9.936;2023-08-06T08:43:22;13.40;99.90
47961;DHT22;33721;48.852;9.936;2023-08-06T08:45:50;13.40;99.90
47961;DHT22;33721;48.852;9.936;2023-08-06T08:48:17;13.40;99.90
47961;DHT22;33721;48.852;9.936;2023-08-06T08:50:47;13.50;99.90
47961;DHT22;33721;48.852;9.936;2023-08-06T08:53:14;13.50;99.90
47961;DHT22;33721;48.852;9.936;2023-08-06T08:55:40;13.50;99.90
47961;DHT22;33721;48.852;9.936;2023-08-06T08:58:07;13.60;99.90
47961;DHT22;33721;48.852;9.936;2023-08-06T09:00:34;13.60;99.90
47961;DHT22;33721;48.852;9.936;2023-08-06T09:03:00;13.70;99.90
47961;DHT22;33721;48.852;9.936;2023-08-06T09:05:29;13.70;99.90
47961;DHT22;33721;48.852;9.936;2023-08-06T09:08:01;13.70;99.90
47961;DHT22;33721;48.852;9.936;2023-08-06T09:10:28;13.70;99.90
47961;DHT22;33721;48.852;9.936;2023-08-06T09:12:56;13.70;99.90
47961;DHT22;33721;48.852;9.936;2023-08-06T09:15:26;13.70;99.90
47961;DHT22;33721;48.852;9.936;2023-08-06T09:17:52;13.70;99.90
47961;DHT22;33721;48.852;9.936;2023-08-06T09:20:19;13.80;99.90
47961;DHT22;33721;48.852;9.936;2023-08-06T09:22:44;13.90;99.90
47961;DHT22;33721;48.852;9.936;2023-08-06T09:25:11;14.00;99.90
47961;DHT22;33721;48.852;9.936;2023-08-06T09:27:39;14.00;99.90
47961;DHT22;33721;48.852;9.936;2023-08-06T09:30:06;14.10;99.90
47961;DHT22;33721;48.852;9.936;2023-08-06T09:32:48;14.20;99.90
47961;DHT22;33721;48.852;9.936;2023-08-06T09:35:19;14.20;99.90
47961;DHT22;33721;48.852;9.936;2023-08-06T09:37:45;14.10;99.90
47961;DHT22;33721;48.852;9.936;2023-08-06T09:40:29;14.10;99.90
47961;DHT22;33721;48.852;9.936;2023-08-06T09:42:56;14.10;99.90
47961;DHT22;33721;48.852;9.936;2023-08-06T09:45:23;14.10;99.90
47961;DHT22;33721;48.852;9.936;2023-08-06T09:47:56;14.00;99.90
47961;DHT22;33721;48.852;9.936;2023-08-06T09:50:21;14.00;99.90
47961;DHT22;33721;48.852;9.936;2023-08-06T09:52:48;14.10;99.90
47961;DHT22;33721;48.852;9.936;2023-08-06T09:55:14;14.30;99.90
47961;DHT22;33721;48.852;9.936;2023-08-06T09:57:41;14.50;99.90
47961;DHT22;33721;48.852;9.936;2023-08-06T10:00:08;14.60;99.90
47961;DHT22;33721;48.852;9.936;2023-08-06T10:02:39;14.60;99.90
47961;DHT22;33721;48.852;9.936;2023-08-06T10:05:05;14.30;99.90
47961;DHT22;33721;48.852;9.936;2023-08-06T10:07:32;14.10;99.90
47961;DHT22;33721;48.852;9.936;2023-08-06T10:09:58;14.10;99.90
47961;DHT22;33721;48.852;9.936;2023-08-06T10:12:27;14.00;99.90
47961;DHT22;33721;48.852;9.936;2023-08-06T10:14:55;14.00;99.90
47961;DHT22;33721;48.852;9.936;2023-08-06T10:17:22;14.00;99.90
47961;DHT22;33721;48.852;9.936;2023-08-06T10:19:50;14.00;99.90
47961;DHT22;33721;48.852;9.936;2023-08-06T10:22:17;13.90;99.90
47961;DHT22;33721;48.852;9.936;2023-08-06T10:27:20;13.90;99.90
47961;DHT22;33721;48.852;9.936;2023-08-06T10:29:46;14.00;99.90
47961;DHT22;33721;48.852;9.936;2023-08-06T10:32:11;14.10;99.90
47961;DHT22;33721;48.852;9.936;2023-08-06T10:34:59;14.10;99.90
47961;DHT22;33721;48.852;9.936;2023-08-06T10:37:36;14.10;99.90
47961;DHT22;33721;48.852;9.936;2023-08-06T10:40:03;14.00;99.90
47961;DHT22;33721;48.852;9.936;2023-08-06T10:42:30;14.00;99.90
47961;DHT22;33721;48.852;9.936;2023-08-06T10:45:32;13.90;99.90
47961;DHT22;33721;48.852;9.936;2023-08-06T10:47:59;14.10;99.90
47961;DHT22;33721;48.852;9.936;2023-08-06T10:50:25;14.20;99.90
47961;DHT22;33721;48.852;9.936;2023-08-06T10:52:51;14.20;99.90
47961;DHT22;33721;48.852;9.936;2023-08-06T10:55:28;14.30;99.90
47961;DHT22;33721;48.852;9.936;2023-08-06T10:57:55;14.20;99.90
47961;DHT22;33721;48.852;9.936;2023-08-06T11:00:22;14.00;99.90
47961;DHT22;33721;48.852;9.936;2023-08-06T11:02:49;13.90;99.90
47961;DHT22;33721;48.852;9.936;2023-08-06T11:05:15;13.80;99.90
47961;DHT22;33721;48.852;9.936;2023-08-06T11:07:41;13.70;99.90
47961;DHT22;33721;48.852;9.936;2023-08-06T11:10:09;13.80;99.90
47961;DHT22;33721;48.852;9.936;2023-08-06T11:12:35;14.00;99.90
47961;DHT22;33721;48.852;9.936;2023-08-06T11:15:02;14.00;99.90
47961;DHT22;33721;48.852;9.936;2023-08-06T11:17:29;13.90;99.90
47961;DHT22;33721;48.852;9.936;2023-08-06T11:19:55;14.00;99.90
47961;DHT22;33721;48.852;9.936;2023-08-06T11:22:21;14.00;99.90
47961;DHT22;33721;48.852;9.936;2023-08-06T11:24:48;13.90;99.90
47961;DHT22;33721;48.852;9.936;2023-08-06T11:27:15;14.10;99.90
47961;DHT22;33721;48.852;9.936;2023-08-06T11:29:42;14.20;99.90
47961;DHT22;33721;48.852;9.936;2023-08-06T11:32:09;14.30;99.90
47961;DHT22;33721;48.852;9.936;2023-08-06T11:34:35;14.50;99.90
47961;DHT22;33721;48.852;9.936;2023-08-06T11:37:03;14.50;99.90
47961;DHT22;33721;48.852;9.936;2023-08-06T11:39:34;14.50;99.90
47961;DHT22;33721;48.852;9.936;2023-08-06T11:42:01;14.50;99.90
47961;DHT22;33721;48.852;9.936;2023-08-06T11:44:36;14.40;99.90
47961;DHT22;33721;48.852;9.936;2023-08-06T11:47:04;14.30;99.90
47961;DHT22;33721;48.852;9.936;2023-08-06T11:49:47;14.20;99.90
47961;DHT22;33721;48.852;9.936;2023-08-06T11:54:41;13.80;99.90
47961;DHT22;33721;48.852;9.936;2023-08-06T11:57:07;13.80;99.90
47961;DHT22;33721;48.852;9.936;2023-08-06T11:59:33;13.60;99.90
47961;DHT22;33721;48.852;9.936;2023-08-06T12:02:03;13.60;99.90
47961;DHT22;33721;48.852;9.936;2023-08-06T12:04:31;13.80;99.90
47961;DHT22;33721;48.852;9.936;2023-08-06T12:07:05;13.80;99.90
47961;DHT22;33721;48.852;9.936;2023-08-06T12:09:33;14.00;99.90
47961;DHT22;33721;48.852;9.936;2023-08-06T12:11:59;14.10;99.90
47961;DHT22;33721;48.852;9.936;2023-08-06T12:14:25;14.20;99.90
47961;DHT22;33721;48.852;9.936;2023-08-06T12:16:51;14.20;99.90
47961;DHT22;33721;48.852;9.936;2023-08-06T12:19:16;14.20;99.90
47961;DHT22;33721;48.852;9.936;2023-08-06T12:21:42;14.30;99.90
47961;DHT22;33721;48.852;9.936;2023-08-06T12:24:07;14.20;99.90
47961;DHT22;33721;48.852;9.936;2023-08-06T12:26:34;14.10;99.90
47961;DHT22;33721;48.852;9.936;2023-08-06T12:29:00;14.10;99.90
47961;DHT22;33721;48.852;9.936;2023-08-06T12:31:25;14.00;99.90
47961;DHT22;33721;48.852;9.936;2023-08-06T12:33:51;14.10;99.90
47961;DHT22;33721;48.852;9.936;2023-08-06T12:36:17;14.00;99.90
47961;DHT22;33721;48.852;9.936;2023-08-06T12:38:42;13.80;99.90
47961;DHT22;33721;48.852;9.936;2023-08-06T12:41:08;13.60;99.90
47961;DHT22;33721;48.852;9.936;2023-08-06T12:43:34;13.50;99.90
47961;DHT22;33721;48.852;9.936;2023-08-06T12:45:59;13.50;99.90
47961;DHT22;33721;48.852;9.936;2023-08-06T12:48:25;13.50;99.90
47961;DHT22;33721;48.852;9.936;2023-08-06T12:50:50;13.40;99.90
47961;DHT22;33721;48.852;9.936;2023-08-06T12:53:16;13.40;99.90
47961;DHT22;33721;48.852;9.936;2023-08-06T12:55:41;13.40;99.90
47961;DHT22;33721;48.852;9.936;2023-08-06T12:58:07;13.30;99.90
47961;DHT22;33721;48.852;9.936;2023-08-06T13:00:33;13.20;99.90
47961;DHT22;33721;48.852;9.936;2023-08-06T13:02:59;13.20;99.90
47961;DHT22;33721;48.852;9.936;2023-08-06T13:05:25;13.10;99.90
47961;DHT22;33721;48.852;9.936;2023-08-06T13:07:50;13.10;99.90
47961;DHT22;33721;48.852;9.936;2023-08-06T13:10:16;13.10;99.90
47961;DHT22;33721;48.852;9.936;2023-08-06T13:12:43;13.00;99.90
47961;DHT22;33721;48.852;9.936;2023-08-06T13:15:08;13.00;99.90
47961;DHT22;33721;48.852;9.936;2023-08-06T13:17:35;13.00;99.90
47961;DHT22;33721;48.852;9.936;2023-08-06T13:20:00;13.00;99.90
47961;DHT22;33721;48.852;9.936;2023-08-06T13:22:26;12.90;99.90
47961;DHT22;33721;48.852;9.936;2023-08-06T13:24:52;13.00;99.90
47961;DHT22;33721;48.852;9.936;2023-08-06T13:27:17;13.00;99.90
47961;DHT22;33721;48.852;9.936;2023-08-06T13:29:43;12.90;99.90
47961;DHT22;33721;48.852;9.936;2023-08-06T13:32:08;12.90;99.90
47961;DHT22;33721;48.852;9.936;2023-08-06T13:34:34;12.90;99.90
47961;DHT22;33721;48.852;9.936;2023-08-06T13:36:59;12.90;99.90
47961;DHT22;33721;48.852;9.936;2023-08-06T13:39:25;12.80;99.90
47961;DHT22;33721;48.852;9.936;2023-08-06T13:41:51;12.90;99.90
47961;DHT22;33721;48.852;9.936;2023-08-06T13:44:16;12.90;99.90
47961;DHT22;33721;48.852;9.936;2023-08-06T13:46:42;12.90;99.90
47961;DHT22;33721;48.852;9.936;2023-08-06T13:49:08;12.90;99.90
47961;DHT22;33721;48.852;9.936;2023-08-06T13:51:33;13.00;99.90
47961;DHT22;33721;48.852;9.936;2023-08-06T13:54:01;13.00;99.90
47961;DHT22;33721;48.852;9.936;2023-08-06T13:56:26;13.10;99.90
47961;DHT22;33721;48.852;9.936;2023-08-06T13:58:52;13.10;99.90
47961;DHT22;33721;48.852;9.936;2023-08-06T14:01:18;13.10;99.90
47961;DHT22;33721;48.852;9.936;2023-08-06T14:03:44;13.20;99.90
47961;DHT22;33721;48.852;9.936;2023-08-06T14:06:10;13.30;99.90
47961;DHT22;33721;48.852;9.936;2023-08-06T14:08:36;13.30;99.90
47961;DHT22;33721;48.852;9.936;2023-08-06T14:11:01;13.30;99.90
47961;DHT22;33721;48.852;9.936;2023-08-06T14:13:27;13.30;99.90
47961;DHT22;33721;48.852;9.936;2023-08-06T14:15:53;13.40;99.90
47961;DHT22;33721;48.852;9.936;2023-08-06T14:18:19;13.40;99.90
47961;DHT22;33721;48.852;9.936;2023-08-06T14:20:44;13.50;99.90
47961;DHT22;33721;48.852;9.936;2023-08-06T14:23:10;13.40;99.90
47961;DHT22;33721;48.852;9.936;2023-08-06T14:25:38;13.40;99.90
47961;DHT22;33721;48.852;9.936;2023-08-06T14:28:05;13.40;99.90
47961;DHT22;33721;48.852;9.936;2023-08-06T14:30:32;13.40;99.90
47961;DHT22;33721;48.852;9.936;2023-08-06T14:32:58;13.30;99.90
47961;DHT22;33721;48.852;9.936;2023-08-06T14:35:26;13.30;99.90
47961;DHT22;33721;48.852;9.936;2023-08-06T14:37:51;13.40;99.90
47961;DHT22;33721;48.852;9.936;2023-08-06T14:40:17;13.40;99.90
47961;DHT22;33721;48.852;9.936;2023-08-06T14:42:42;13.30;99.90
47961;DHT22;33721;48.852;9.936;2023-08-06T14:45:09;13.30;99.90
47961;DHT22;33721;48.852;9.936;2023-08-06T14:47:34;13.30;99.90
47961;DHT22;33721;48.852;9.936;2023-08-06T14:50:00;13.40;99.90
47961;DHT22;33721;48.852;9.936;2023-08-06T14:52:26;13.40;99.90
47961;DHT22;33721;48.852;9.936;2023-08-06T14:54:51;13.40;99.90
47961;DHT22;33721;48.852;9.936;2023-08-06T14:57:20;13.60;99.90
47961;DHT22;33721;48.852;9.936;2023-08-06T14:59:47;13.80;99.90
47961;DHT22;33721;48.852;9.936;2023-08-06T15:02:13;13.90;99.90
47961;DHT22;33721;48.852;9.936;2023-08-06T15:04:38;13.80;99.90
47961;DHT22;33721;48.852;9.936;2023-08-06T15:07:04;13.90;99.90
47961;DHT22;33721;48.852;9.936;2023-08-06T15:09:29;13.80;99.90
47961;DHT22;33721;48.852;9.936;2023-08-06T15:11:55;13.70;99.90
47961;DHT22;33721;48.852;9.936;2023-08-06T15:14:21;13.70;99.90
47961;DHT22;33721;48.852;9.936;2023-08-06T15:16:47;13.50;99.90
47961;DHT22;33721;48.852;9.936;2023-08-06T15:19:13;13.40;99.90
47961;DHT22;33721;48.852;9.936;2023-08-06T15:21:39;13.30;99.90
47961;DHT22;33721;48.852;9.936;2023-08-06T15:24:05;13.30;99.90
47961;DHT22;33721;48.852;9.936;2023-08-06T15:26:30;13.30;99.90
47961;DHT22;33721;48.852;9.936;2023-08-06T15:28:56;13.40;99.90
47961;DHT22;33721;48.852;9.936;2023-08-06T15:31:23;13.50;99.90
47961;DHT22;33721;48.852;9.936;2023-08-06T15:33:48;13.60;99.90
47961;DHT22;33721;48.852;9.936;2023-08-06T15:36:14;13.40;99.90